sensor_id;sensor_type;location;lat;lon;timestamp;pressure;altitude;pressure_sealevel;temperature;humidity
16451;BME280;12243;42.708;23.310;2023-02-01T00:02:16;95116.50;;;1.16;97.31
16451;BME280;12243;42.708;23.310;2023-02-01T00:04:43;95117.25;;;1.18;97.42
16451;BME280;12243;42.708;23.310;2023-02-01T00:07:10;95113.31;;;1.30;97.38
16451;BME280;12243;42.708;23.310;2023-02-01T00:09:37;95115.03;;;1.29;96.83
16451;BME280;12243;42.708;23.310;2023-02-01T00:12:04;95122.09;;;1.24;96.38
16451;BME280;12243;42.708;23.310;2023-02-01T00:14:31;95128.28;;;1.20;96.29
16451;BME280;12243;42.708;23.310;2023-02-01T00:17:04;95123.06;;;1.22;96.62
16451;BME280;12243;42.708;23.310;2023-02-01T00:19:32;95120.72;;;1.17;97.17
16451;BME280;12243;42.708;23.310;2023-02-01T00:21:59;95118.22;;;1.34;96.52
16451;BME280;12243;42.708;23.310;2023-02-01T00:24:26;95127.69;;;1.32;95.33
16451;BME280;12243;42.708;23.310;2023-02-01T00:26:53;95117.53;;;1.31;95.58
16451;BME280;12243;42.708;23.310;2023-02-01T00:29:21;95110.44;;;1.17;96.12
16451;BME280;12243;42.708;23.310;2023-02-01T00:31:50;95111.69;;;1.27;95.98
16451;BME280;12243;42.708;23.310;2023-02-01T00:34:18;95113.50;;;1.25;94.48
16451;BME280;12243;42.708;23.310;2023-02-01T00:36:46;95115.31;;;1.23;94.05
16451;BME280;12243;42.708;23.310;2023-02-01T00:39:14;95110.03;;;1.26;94.11
16451;BME280;12243;42.708;23.310;2023-02-01T00:41:41;95108.59;;;1.21;93.41
16451;BME280;12243;42.708;23.310;2023-02-01T00:44:08;95113.78;;;1.19;93.60
16451;BME280;12243;42.708;23.310;2023-02-01T00:46:35;95103.94;;;1.10;93.99
16451;BME280;12243;42.708;23.310;2023-02-01T00:49:02;95112.53;;;1.09;92.33
16451;BME280;12243;42.708;23.310;2023-02-01T00:51:31;95101.59;;;1.05;91.88
16451;BME280;12243;42.708;23.310;2023-02-01T00:54:00;95102.69;;;1.00;92.57
16451;BME280;12243;42.708;23.310;2023-02-01T00:56:28;95107.94;;;0.97;92.99
16451;BME280;12243;42.708;23.310;2023-02-01T00:58:55;95104.78;;;0.91;92.24
16451;BME280;12243;42.708;23.310;2023-02-01T01:01:25;95099.91;;;0.85;93.15
16451;BME280;12243;42.708;23.310;2023-02-01T01:03:56;95097.69;;;0.97;92.58
16451;BME280;12243;42.708;23.310;2023-02-01T01:06:24;95100.34;;;0.95;91.38
16451;BME280;12243;42.708;23.310;2023-02-01T01:08:53;95104.00;;;0.89;92.00
16451;BME280;12243;42.708;23.310;2023-02-01T01:11:22;95104.00;;;0.89;91.82
16451;BME280;12243;42.708;23.310;2023-02-01T01:13:51;95087.44;;;0.97;91.38
16451;BME280;12243;42.708;23.310;2023-02-01T01:16:19;95094.22;;;0.98;90.32
16451;BME280;12243;42.708;23.310;2023-02-01T01:18:47;95095.22;;;0.95;89.63
16451;BME280;12243;42.708;23.310;2023-02-01T01:21:16;95091.66;;;0.98;89.50
16451;BME280;12243;42.708;23.310;2023-02-01T01:23:44;95093.47;;;0.95;89.66
16451;BME280;12243;42.708;23.310;2023-02-01T01:26:14;95091.38;;;0.85;89.28
16451;BME280;12243;42.708;23.310;2023-02-01T01:28:42;95088.13;;;0.81;88.76
16451;BME280;12243;42.708;23.310;2023-02-01T01:31:09;95096.16;;;0.74;88.38
16451;BME280;12243;42.708;23.310;2023-02-01T01:33:37;95094.19;;;0.60;88.04
16451;BME280;12243;42.708;23.310;2023-02-01T01:36:05;95099.91;;;0.66;87.55
16451;BME280;12243;42.708;23.310;2023-02-01T01:38:32;95102.50;;;0.65;87.91
16451;BME280;12243;42.708;23.310;2023-02-01T01:40:59;95105.19;;;0.62;88.02
16451;BME280;12243;42.708;23.310;2023-02-01T01:43:53;95112.75;;;0.65;87.47
16451;BME280;12243;42.708;23.310;2023-02-01T01:46:23;95107.63;;;0.65;86.86
16451;BME280;12243;42.708;23.310;2023-02-01T01:48:56;95109.16;;;0.69;87.16
16451;BME280;12243;42.708;23.310;2023-02-01T01:51:24;95107.41;;;0.69;86.77
16451;BME280;12243;42.708;23.310;2023-02-01T01:54:01;95107.75;;;0.62;86.63
16451;BME280;12243;42.708;23.310;2023-02-01T01:56:29;95107.31;;;0.52;87.75
16451;BME280;12243;42.708;23.310;2023-02-01T01:59:00;95107.88;;;0.59;87.14
16451;BME280;12243;42.708;23.310;2023-02-01T02:01:28;95106.34;;;0.55;86.77
16451;BME280;12243;42.708;23.310;2023-02-01T02:03:55;95106.06;;;0.42;87.34
16451;BME280;12243;42.708;23.310;2023-02-01T02:06:42;95110.47;;;0.38;87.72
16451;BME280;12243;42.708;23.310;2023-02-01T02:09:14;95107.28;;;0.33;87.39
16451;BME280;12243;42.708;23.310;2023-02-01T02:11:41;95096.91;;;0.36;87.55
16451;BME280;12243;42.708;23.310;2023-02-01T02:14:12;95101.91;;;0.39;88.10
16451;BME280;12243;42.708;23.310;2023-02-01T02:17:05;95093.56;;;0.34;87.96
16451;BME280;12243;42.708;23.310;2023-02-01T02:20:07;95092.03;;;0.30;88.18
16451;BME280;12243;42.708;23.310;2023-02-01T02:23:01;95102.28;;;0.30;87.72
16451;BME280;12243;42.708;23.310;2023-02-01T02:26:01;95099.84;;;0.27;87.48
16451;BME280;12243;42.708;23.310;2023-02-01T02:28:56;95102.34;;;0.29;87.02
16451;BME280;12243;42.708;23.310;2023-02-01T02:35:26;95108.69;;;0.40;86.93
16451;BME280;12243;42.708;23.310;2023-02-01T02:38:02;95105.63;;;0.32;87.25
16451;BME280;12243;42.708;23.310;2023-02-01T02:40:34;95104.09;;;0.28;87.66
16451;BME280;12243;42.708;23.310;2023-02-01T02:43:09;95099.34;;;0.19;88.91
16451;BME280;12243;42.708;23.310;2023-02-01T02:45:53;95102.28;;;0.30;89.32
16451;BME280;12243;42.708;23.310;2023-02-01T02:48:52;95098.06;;;0.29;88.95
16451;BME280;12243;42.708;23.310;2023-02-01T02:51:27;95096.09;;;0.36;89.02
16451;BME280;12243;42.708;23.310;2023-02-01T02:54:15;95096.91;;;0.36;89.55
16451;BME280;12243;42.708;23.310;2023-02-01T02:57:04;95105.09;;;0.44;88.96
16451;BME280;12243;42.708;23.310;2023-02-01T02:59:52;95099.13;;;0.44;89.42
16451;BME280;12243;42.708;23.310;2023-02-01T03:02:38;95104.25;;;0.44;88.73
16451;BME280;12243;42.708;23.310;2023-02-01T03:05:22;95107.53;;;0.47;87.91
16451;BME280;12243;42.708;23.310;2023-02-01T03:08:02;95111.75;;;0.48;87.61
16451;BME280;12243;42.708;23.310;2023-02-01T03:10:38;95111.94;;;0.64;87.13
16451;BME280;12243;42.708;23.310;2023-02-01T03:13:13;95117.25;;;0.60;86.34
16451;BME280;12243;42.708;23.310;2023-02-01T03:15:45;95124.88;;;0.61;85.75
16451;BME280;12243;42.708;23.310;2023-02-01T03:18:20;95119.53;;;0.66;85.83
16451;BME280;12243;42.708;23.310;2023-02-01T03:20:52;95119.41;;;0.69;85.43
16451;BME280;12243;42.708;23.310;2023-02-01T03:23:25;95129.03;;;0.64;85.71
16451;BME280;12243;42.708;23.310;2023-02-01T03:25:56;95136.06;;;0.59;86.25
16451;BME280;12243;42.708;23.310;2023-02-01T03:28:28;95129.28;;;0.58;86.23
16451;BME280;12243;42.708;23.310;2023-02-01T03:30:57;95137.88;;;0.57;86.15
16451;BME280;12243;42.708;23.310;2023-02-01T03:33:26;95134.34;;;0.59;86.57
16451;BME280;12243;42.708;23.310;2023-02-01T03:36:05;95133.25;;;0.65;85.82
16451;BME280;12243;42.708;23.310;2023-02-01T03:38:41;95126.22;;;0.70;86.14
16451;BME280;12243;42.708;23.310;2023-02-01T03:41:19;95132.75;;;0.77;86.04
16451;BME280;12243;42.708;23.310;2023-02-01T03:43:54;95123.06;;;0.84;85.66
16451;BME280;12243;42.708;23.310;2023-02-01T03:46:27;95125.75;;;0.81;85.91
16451;BME280;12243;42.708;23.310;2023-02-01T03:49:01;95123.06;;;0.84;85.60
16451;BME280;12243;42.708;23.310;2023-02-01T03:51:29;95127.19;;;0.86;84.81
16451;BME280;12243;42.708;23.310;2023-02-01T03:54:01;95129.00;;;0.84;85.26
16451;BME280;12243;42.708;23.310;2023-02-01T03:56:29;95130.53;;;0.88;85.54
16451;BME280;12243;42.708;23.310;2023-02-01T03:58:59;95126.81;;;0.95;84.47
16451;BME280;12243;42.708;23.310;2023-02-01T04:01:31;95131.28;;;0.90;84.68
16451;BME280;12243;42.708;23.310;2023-02-01T04:03:58;95135.66;;;0.88;84.38
16451;BME280;12243;42.708;23.310;2023-02-01T04:06:26;95132.06;;;0.92;84.01
16451;BME280;12243;42.708;23.310;2023-02-01T04:08:59;95132.88;;;0.93;84.45
16451;BME280;12243;42.708;23.310;2023-02-01T04:11:26;95123.75;;;0.87;84.51
16451;BME280;12243;42.708;23.310;2023-02-01T04:13:54;95130.66;;;0.85;84.44
16451;BME280;12243;42.708;23.310;2023-02-01T04:16:30;95121.13;;;0.89;84.14
16451;BME280;12243;42.708;23.310;2023-02-01T04:18:57;95130.13;;;0.98;84.49
16451;BME280;12243;42.708;23.310;2023-02-01T04:21:24;95127.41;;;1.01;84.03
16451;BME280;12243;42.708;23.310;2023-02-01T04:23:51;95130.53;;;0.88;85.10
16451;BME280;12243;42.708;23.310;2023-02-01T04:26:20;95130.41;;;0.91;85.56
16451;BME280;12243;42.708;23.310;2023-02-01T04:28:47;95128.81;;;0.89;85.10
16451;BME280;12243;42.708;23.310;2023-02-01T04:31:15;95133.72;;;0.93;85.19
16451;BME280;12243;42.708;23.310;2023-02-01T04:33:42;95128.31;;;1.00;84.80
16451;BME280;12243;42.708;23.310;2023-02-01T04:36:09;95131.66;;;1.02;85.18
16451;BME280;12243;42.708;23.310;2023-02-01T04:38:36;95132.06;;;1.11;84.90
16451;BME280;12243;42.708;23.310;2023-02-01T04:41:03;95129.72;;;1.07;85.00
16451;BME280;12243;42.708;23.310;2023-02-01T04:43:31;95135.69;;;1.07;85.12
16451;BME280;12243;42.708;23.310;2023-02-01T04:45:58;95140.09;;;1.04;85.33
16451;BME280;12243;42.708;23.310;2023-02-01T04:48:25;95139.72;;;1.13;85.55
16451;BME280;12243;42.708;23.310;2023-02-01T04:50:53;95133.63;;;1.15;85.13
16451;BME280;12243;42.708;23.310;2023-02-01T04:53:20;95137.00;;;1.16;85.34
16451;BME280;12243;42.708;23.310;2023-02-01T04:55:48;95138.59;;;1.18;85.48
16451;BME280;12243;42.708;23.310;2023-02-01T04:58:15;95147.63;;;1.27;85.95
16451;BME280;12243;42.708;23.310;2023-02-01T05:00:44;95148.16;;;1.15;86.23
16451;BME280;12243;42.708;23.310;2023-02-01T05:03:11;95147.88;;;1.21;86.66
16451;BME280;12243;42.708;23.310;2023-02-01T05:05:38;95158.16;;;1.21;86.75
16451;BME280;12243;42.708;23.310;2023-02-01T05:08:05;95154.19;;;1.14;87.66
16451;BME280;12243;42.708;23.310;2023-02-01T05:10:32;95159.19;;;1.17;87.99
16451;BME280;12243;42.708;23.310;2023-02-01T05:12:59;95166.81;;;1.18;88.43
16451;BME280;12243;42.708;23.310;2023-02-01T05:15:44;95165.16;;;1.17;88.48
16451;BME280;12243;42.708;23.310;2023-02-01T05:18:12;95161.63;;;1.20;87.55
16451;BME280;12243;42.708;23.310;2023-02-01T05:20:39;95154.53;;;1.25;88.05
16451;BME280;12243;42.708;23.310;2023-02-01T05:23:05;95155.91;;;1.32;87.74
16451;BME280;12243;42.708;23.310;2023-02-01T05:25:35;95152.13;;;1.22;87.39
16451;BME280;12243;42.708;23.310;2023-02-01T05:28:02;95167.19;;;1.30;87.33
16451;BME280;12243;42.708;23.310;2023-02-01T05:30:29;95167.34;;;1.25;87.34
16451;BME280;12243;42.708;23.310;2023-02-01T05:32:59;95167.88;;;1.33;86.90
16451;BME280;12243;42.708;23.310;2023-02-01T05:35:26;95169.53;;;1.34;87.37
16451;BME280;12243;42.708;23.310;2023-02-01T05:37:53;95165.91;;;1.38;86.95
16451;BME280;12243;42.708;23.310;2023-02-01T05:40:20;95162.13;;;1.47;86.58
16451;BME280;12243;42.708;23.310;2023-02-01T05:42:47;95167.31;;;1.46;86.62
16451;BME280;12243;42.708;23.310;2023-02-01T05:45:14;95165.94;;;1.57;86.57
16451;BME280;12243;42.708;23.310;2023-02-01T05:47:41;95177.03;;;1.58;86.39
16451;BME280;12243;42.708;23.310;2023-02-01T05:50:10;95169.03;;;1.64;86.03
16451;BME280;12243;42.708;23.310;2023-02-01T05:52:37;95162.22;;;1.63;86.01
16451;BME280;12243;42.708;23.310;2023-02-01T05:55:04;95164.78;;;1.63;85.85
16451;BME280;12243;42.708;23.310;2023-02-01T05:57:31;95163.28;;;1.59;85.48
16451;BME280;12243;42.708;23.310;2023-02-01T05:59:58;95168.00;;;1.68;85.71
16451;BME280;12243;42.708;23.310;2023-02-01T06:02:26;95172.31;;;1.67;85.09
16451;BME280;12243;42.708;23.310;2023-02-01T06:04:53;95172.13;;;1.71;85.42
16451;BME280;12243;42.708;23.310;2023-02-01T06:07:21;95174.78;;;1.69;85.57
16451;BME280;12243;42.708;23.310;2023-02-01T06:09:49;95173.97;;;1.69;85.63
16451;BME280;12243;42.708;23.310;2023-02-01T06:12:15;95175.38;;;1.74;84.84
16451;BME280;12243;42.708;23.310;2023-02-01T06:14:42;95168.75;;;1.70;83.97
16451;BME280;12243;42.708;23.310;2023-02-01T06:17:10;95174.66;;;1.72;84.53
16451;BME280;12243;42.708;23.310;2023-02-01T06:19:37;95173.91;;;1.87;84.00
16451;BME280;12243;42.708;23.310;2023-02-01T06:22:05;95172.69;;;1.77;84.45
16451;BME280;12243;42.708;23.310;2023-02-01T06:24:34;95175.75;;;1.85;84.44
16451;BME280;12243;42.708;23.310;2023-02-01T06:27:00;95181.56;;;1.89;84.25
16451;BME280;12243;42.708;23.310;2023-02-01T06:29:27;95177.59;;;2.01;84.04
16451;BME280;12243;42.708;23.310;2023-02-01T06:31:55;95170.78;;;2.00;83.75
16451;BME280;12243;42.708;23.310;2023-02-01T06:34:22;95177.44;;;2.04;83.83
16451;BME280;12243;42.708;23.310;2023-02-01T06:36:50;95179.59;;;2.13;83.53
16451;BME280;12243;42.708;23.310;2023-02-01T06:39:17;95185.75;;;2.09;82.77
16451;BME280;12243;42.708;23.310;2023-02-01T06:41:47;95179.88;;;2.07;82.63
16451;BME280;12243;42.708;23.310;2023-02-01T06:44:15;95179.59;;;2.13;82.67
16451;BME280;12243;42.708;23.310;2023-02-01T06:46:42;95187.44;;;2.10;82.75
16451;BME280;12243;42.708;23.310;2023-02-01T06:49:09;95186.16;;;2.19;82.35
16451;BME280;12243;42.708;23.310;2023-02-01T06:51:35;95204.63;;;2.27;81.81
16451;BME280;12243;42.708;23.310;2023-02-01T06:54:02;95197.88;;;2.24;81.89
16451;BME280;12243;42.708;23.310;2023-02-01T06:56:29;95197.09;;;2.22;82.21
16451;BME280;12243;42.708;23.310;2023-02-01T06:58:58;95206.03;;;2.32;81.81
16451;BME280;12243;42.708;23.310;2023-02-01T07:01:26;95206.72;;;2.36;81.80
16451;BME280;12243;42.708;23.310;2023-02-01T07:03:52;95209.22;;;2.37;81.42
16451;BME280;12243;42.708;23.310;2023-02-01T07:06:19;95218.31;;;2.45;80.99
16451;BME280;12243;42.708;23.310;2023-02-01T07:08:47;95226.03;;;2.45;81.43
16451;BME280;12243;42.708;23.310;2023-02-01T07:11:15;95230.00;;;2.50;81.29
16451;BME280;12243;42.708;23.310;2023-02-01T07:13:42;95225.25;;;2.60;80.81
16451;BME280;12243;42.708;23.310;2023-02-01T07:16:12;95226.63;;;2.67;80.73
16451;BME280;12243;42.708;23.310;2023-02-01T07:18:40;95239.34;;;2.70;80.34
16451;BME280;12243;42.708;23.310;2023-02-01T07:21:07;95229.81;;;2.72;80.02
16451;BME280;12243;42.708;23.310;2023-02-01T07:23:35;95235.25;;;2.66;79.60
16451;BME280;12243;42.708;23.310;2023-02-01T07:26:04;95235.41;;;2.63;79.83
16451;BME280;12243;42.708;23.310;2023-02-01T07:28:32;95240.25;;;2.69;79.52
16451;BME280;12243;42.708;23.310;2023-02-01T07:31:03;95239.03;;;2.59;79.72
16451;BME280;12243;42.708;23.310;2023-02-01T07:33:32;95237.19;;;2.61;79.61
16451;BME280;12243;42.708;23.310;2023-02-01T07:36:00;95243.13;;;2.63;79.08
16451;BME280;12243;42.708;23.310;2023-02-01T07:38:27;95250.81;;;2.63;79.52
16451;BME280;12243;42.708;23.310;2023-02-01T07:40:57;95247.34;;;2.64;78.87
16451;BME280;12243;42.708;23.310;2023-02-01T07:43:25;95255.97;;;2.63;79.43
16451;BME280;12243;42.708;23.310;2023-02-01T07:45:52;95245.53;;;2.66;80.08
16451;BME280;12243;42.708;23.310;2023-02-01T07:48:19;95257.78;;;2.96;78.15
16451;BME280;12243;42.708;23.310;2023-02-01T07:50:47;95254.91;;;2.84;78.14
16451;BME280;12243;42.708;23.310;2023-02-01T07:53:14;95267.19;;;2.79;78.48
16451;BME280;12243;42.708;23.310;2023-02-01T07:55:41;95251.75;;;2.79;78.28
16451;BME280;12243;42.708;23.310;2023-02-01T07:58:08;95265.06;;;2.88;78.00
16451;BME280;12243;42.708;23.310;2023-02-01T08:00:35;95269.06;;;2.93;78.12
16451;BME280;12243;42.708;23.310;2023-02-01T08:03:19;95257.47;;;3.02;77.65
16451;BME280;12243;42.708;23.310;2023-02-01T08:05:47;95266.13;;;3.01;77.38
16451;BME280;12243;42.708;23.310;2023-02-01T08:08:14;95264.91;;;3.08;77.71
16451;BME280;12243;42.708;23.310;2023-02-01T08:10:41;95272.47;;;3.11;77.01
16451;BME280;12243;42.708;23.310;2023-02-01T08:13:08;95268.53;;;3.21;76.92
16451;BME280;12243;42.708;23.310;2023-02-01T08:15:35;95267.75;;;3.37;76.70
16451;BME280;12243;42.708;23.310;2023-02-01T08:18:02;95261.75;;;3.36;75.59
16451;BME280;12243;42.708;23.310;2023-02-01T08:20:29;95264.09;;;3.41;75.53
16451;BME280;12243;42.708;23.310;2023-02-01T08:22:58;95266.34;;;3.47;75.64
16451;BME280;12243;42.708;23.310;2023-02-01T08:25:25;95263.78;;;3.47;75.16
16451;BME280;12243;42.708;23.310;2023-02-01T08:27:54;95264.22;;;3.55;75.41
16451;BME280;12243;42.708;23.310;2023-02-01T08:30:21;95262.97;;;3.62;75.18
16451;BME280;12243;42.708;23.310;2023-02-01T08:32:48;95269.91;;;3.77;74.19
16451;BME280;12243;42.708;23.310;2023-02-01T08:35:15;95266.56;;;3.75;74.10
16451;BME280;12243;42.708;23.310;2023-02-01T08:37:42;95266.72;;;3.72;73.97
16451;BME280;12243;42.708;23.310;2023-02-01T08:40:11;95265.84;;;3.73;73.96
16451;BME280;12243;42.708;23.310;2023-02-01T08:42:39;95268.91;;;3.80;73.29
16451;BME280;12243;42.708;23.310;2023-02-01T08:45:19;95260.03;;;3.86;73.56
16451;BME280;12243;42.708;23.310;2023-02-01T08:47:46;95255.28;;;3.94;73.24
16451;BME280;12243;42.708;23.310;2023-02-01T08:50:13;95252.22;;;4.03;72.58
16451;BME280;12243;42.708;23.310;2023-02-01T08:52:41;95244.81;;;3.97;72.31
16451;BME280;12243;42.708;23.310;2023-02-01T08:55:10;95255.72;;;4.02;71.57
16451;BME280;12243;42.708;23.310;2023-02-01T08:57:37;95244.41;;;3.89;71.55
16451;BME280;12243;42.708;23.310;2023-02-01T09:00:05;95253.88;;;3.88;71.71
16451;BME280;12243;42.708;23.310;2023-02-01T09:02:33;95248.06;;;3.85;72.89
16451;BME280;12243;42.708;23.310;2023-02-01T09:05:00;95259.88;;;3.89;72.03
16451;BME280;12243;42.708;23.310;2023-02-01T09:07:27;95254.00;;;3.69;71.60
16451;BME280;12243;42.708;23.310;2023-02-01T09:09:55;95262.34;;;3.74;72.92
16451;BME280;12243;42.708;23.310;2023-02-01T09:12:27;95267.03;;;3.84;72.13
16451;BME280;12243;42.708;23.310;2023-02-01T09:14:54;95258.69;;;3.78;71.66
16451;BME280;12243;42.708;23.310;2023-02-01T09:17:21;95266.50;;;3.77;72.47
16451;BME280;12243;42.708;23.310;2023-02-01T09:19:47;95263.38;;;3.88;72.09
16451;BME280;12243;42.708;23.310;2023-02-01T09:22:14;95267.59;;;3.89;71.84
16451;BME280;12243;42.708;23.310;2023-02-01T09:24:41;95270.25;;;4.03;71.51
16451;BME280;12243;42.708;23.310;2023-02-01T09:27:08;95267.53;;;4.06;71.11
16451;BME280;12243;42.708;23.310;2023-02-01T09:29:37;95267.53;;;4.06;70.89
16451;BME280;12243;42.708;23.310;2023-02-01T09:32:04;95264.53;;;4.14;71.25
16451;BME280;12243;42.708;23.310;2023-02-01T09:34:32;95251.91;;;4.09;70.31
16451;BME280;12243;42.708;23.310;2023-02-01T09:36:59;95257.06;;;4.09;71.24
16451;BME280;12243;42.708;23.310;2023-02-01T09:39:27;95249.91;;;3.98;70.82
16451;BME280;12243;42.708;23.310;2023-02-01T09:42:02;95242.00;;;3.86;70.98
16451;BME280;12243;42.708;23.310;2023-02-01T09:44:46;95242.41;;;3.94;70.46
16451;BME280;12243;42.708;23.310;2023-02-01T09:47:17;95232.84;;;3.96;70.21
16451;BME280;12243;42.708;23.310;2023-02-01T09:49:49;95229.44;;;4.11;70.20
16451;BME280;12243;42.708;23.310;2023-02-01T09:52:22;95220.66;;;4.15;69.79
16451;BME280;12243;42.708;23.310;2023-02-01T09:54:55;95221.47;;;4.16;70.91
16451;BME280;12243;42.708;23.310;2023-02-01T09:57:38;95208.22;;;4.22;70.24
16451;BME280;12243;42.708;23.310;2023-02-01T10:00:14;95207.88;;;4.44;70.21
16451;BME280;12243;42.708;23.310;2023-02-01T10:02:44;95211.19;;;4.76;68.51
16451;BME280;12243;42.708;23.310;2023-02-01T10:05:14;95216.66;;;4.86;67.29
16451;BME280;12243;42.708;23.310;2023-02-01T10:07:48;95205.53;;;4.99;66.55
16451;BME280;12243;42.708;23.310;2023-02-01T10:10:23;95199.31;;;4.88;66.71
16451;BME280;12243;42.708;23.310;2023-02-01T10:13:24;95198.78;;;4.97;67.50
16451;BME280;12243;42.708;23.310;2023-02-01T10:16:12;95203.69;;;5.16;66.88
16451;BME280;12243;42.708;23.310;2023-02-01T10:18:57;95200.03;;;5.20;66.20
16451;BME280;12243;42.708;23.310;2023-02-01T10:21:39;95197.53;;;5.18;65.97
16451;BME280;12243;42.708;23.310;2023-02-01T10:24:21;95190.53;;;5.35;65.11
16451;BME280;12243;42.708;23.310;2023-02-01T10:26:55;95191.28;;;5.51;65.65
16451;BME280;12243;42.708;23.310;2023-02-01T10:29:26;95188.88;;;5.48;64.26
16451;BME280;12243;42.708;23.310;2023-02-01T10:31:59;95185.91;;;5.40;64.71
16451;BME280;12243;42.708;23.310;2023-02-01T10:34:29;95178.06;;;5.70;65.12
16451;BME280;12243;42.708;23.310;2023-02-01T10:37:01;95181.06;;;5.91;62.68
16451;BME280;12243;42.708;23.310;2023-02-01T10:39:28;95171.72;;;5.88;63.23
16451;BME280;12243;42.708;23.310;2023-02-01T10:41:56;95167.50;;;6.02;62.21
16451;BME280;12243;42.708;23.310;2023-02-01T10:44:26;95170.13;;;6.14;62.14
16451;BME280;12243;42.708;23.310;2023-02-01T10:46:54;95152.22;;;6.11;61.92
16451;BME280;12243;42.708;23.310;2023-02-01T10:49:29;95174.91;;;5.79;63.53
16451;BME280;12243;42.708;23.310;2023-02-01T10:52:06;95161.41;;;5.88;63.21
16451;BME280;12243;42.708;23.310;2023-02-01T10:54:38;95165.34;;;6.08;62.26
16451;BME280;12243;42.708;23.310;2023-02-01T10:57:08;95162.44;;;6.40;61.15
16451;BME280;12243;42.708;23.310;2023-02-01T10:59:35;95160.53;;;6.56;60.24
16451;BME280;12243;42.708;23.310;2023-02-01T11:02:15;95168.81;;;6.61;63.48
16451;BME280;12243;42.708;23.310;2023-02-01T11:04:45;95168.31;;;6.56;59.04
16451;BME280;12243;42.708;23.310;2023-02-01T11:07:17;95163.66;;;6.34;59.74
16451;BME280;12243;42.708;23.310;2023-02-01T11:09:49;95161.25;;;6.58;60.61
16451;BME280;12243;42.708;23.310;2023-02-01T11:12:25;95160.84;;;6.64;59.63
16451;BME280;12243;42.708;23.310;2023-02-01T11:14:58;95163.91;;;6.44;59.76
16451;BME280;12243;42.708;23.310;2023-02-01T11:17:28;95164.84;;;6.43;59.56
16451;BME280;12243;42.708;23.310;2023-02-01T11:20:02;95156.19;;;6.57;59.12
16451;BME280;12243;42.708;23.310;2023-02-01T11:22:29;95148.66;;;6.66;58.05
16451;BME280;12243;42.708;23.310;2023-02-01T11:24:56;95150.91;;;6.46;58.91
16451;BME280;12243;42.708;23.310;2023-02-01T11:27:25;95143.00;;;6.47;59.04
16451;BME280;12243;42.708;23.310;2023-02-01T11:29:56;95140.50;;;6.33;59.91
16451;BME280;12243;42.708;23.310;2023-02-01T11:32:26;95132.88;;;6.44;60.24
16451;BME280;12243;42.708;23.310;2023-02-01T11:34:55;95128.31;;;6.48;59.76
16451;BME280;12243;42.708;23.310;2023-02-01T11:37:28;95125.63;;;6.36;59.54
16451;BME280;12243;42.708;23.310;2023-02-01T11:39:57;95134.13;;;6.51;60.58
16451;BME280;12243;42.708;23.310;2023-02-01T11:42:26;95124.50;;;6.53;58.75
16451;BME280;12243;42.708;23.310;2023-02-01T11:45:17;95124.19;;;6.58;59.42
16451;BME280;12243;42.708;23.310;2023-02-01T11:47:44;95124.81;;;6.49;59.82
16451;BME280;12243;42.708;23.310;2023-02-01T11:50:15;95116.47;;;6.31;59.31
16451;BME280;12243;42.708;23.310;2023-02-01T11:53:02;95104.22;;;6.47;59.52
16451;BME280;12243;42.708;23.310;2023-02-01T11:55:52;95113.34;;;6.53;58.71
16451;BME280;12243;42.708;23.310;2023-02-01T11:58:41;95116.75;;;6.53;60.82
16451;BME280;12243;42.708;23.310;2023-02-01T12:01:24;95116.78;;;7.04;72.75
16451;BME280;12243;42.708;23.310;2023-02-01T12:04:18;95097.72;;;7.05;62.19
16451;BME280;12243;42.708;23.310;2023-02-01T12:06:51;95102.16;;;7.03;58.38
16451;BME280;12243;42.708;23.310;2023-02-01T12:12:22;95105.78;;;6.75;60.00
16451;BME280;12243;42.708;23.310;2023-02-01T12:15:01;95100.59;;;7.01;59.14
16451;BME280;12243;42.708;23.310;2023-02-01T12:17:43;95101.88;;;6.95;58.22
16451;BME280;12243;42.708;23.310;2023-02-01T12:20:21;95100.84;;;6.98;58.05
16451;BME280;12243;42.708;23.310;2023-02-01T12:23:00;95106.44;;;6.91;59.28
16451;BME280;12243;42.708;23.310;2023-02-01T12:25:37;95101.97;;;6.93;59.06
16451;BME280;12243;42.708;23.310;2023-02-01T12:28:27;95105.16;;;7.10;58.30
16451;BME280;12243;42.708;23.310;2023-02-01T12:31:12;95081.38;;;6.66;57.78
16451;BME280;12243;42.708;23.310;2023-02-01T12:33:54;95080.81;;;6.36;59.21
16451;BME280;12243;42.708;23.310;2023-02-01T12:36:28;95090.41;;;6.21;60.23
16451;BME280;12243;42.708;23.310;2023-02-01T12:39:03;95089.56;;;6.20;60.28
16451;BME280;12243;42.708;23.310;2023-02-01T12:41:52;95084.84;;;6.40;59.44
16451;BME280;12243;42.708;23.310;2023-02-01T12:44:30;95103.69;;;6.55;58.28
16451;BME280;12243;42.708;23.310;2023-02-01T12:47:03;95090.13;;;6.51;57.84
16451;BME280;12243;42.708;23.310;2023-02-01T12:49:43;95088.69;;;6.47;60.02
16451;BME280;12243;42.708;23.310;2023-02-01T12:52:14;95089.84;;;6.68;58.67
16451;BME280;12243;42.708;23.310;2023-02-01T12:54:48;95087.16;;;6.83;58.14
16451;BME280;12243;42.708;23.310;2023-02-01T12:57:23;95087.16;;;6.83;58.30
16451;BME280;12243;42.708;23.310;2023-02-01T12:59:59;95088.84;;;6.84;57.56
16451;BME280;12243;42.708;23.310;2023-02-01T13:02:32;95087.88;;;6.85;57.28
16451;BME280;12243;42.708;23.310;2023-02-01T13:05:11;95094.31;;;6.66;56.42
16451;BME280;12243;42.708;23.310;2023-02-01T13:07:42;95106.41;;;6.53;58.06
16451;BME280;12243;42.708;23.310;2023-02-01T13:10:15;95093.75;;;6.36;58.61
16451;BME280;12243;42.708;23.310;2023-02-01T13:12:49;95102.22;;;6.38;59.09
16451;BME280;12243;42.708;23.310;2023-02-01T13:15:21;95103.41;;;6.59;58.68
16451;BME280;12243;42.708;23.310;2023-02-01T13:17:57;95101.44;;;6.88;57.77
16451;BME280;12243;42.708;23.310;2023-02-01T13:20:35;95098.94;;;6.61;56.67
16451;BME280;12243;42.708;23.310;2023-02-01T13:23:05;95095.66;;;6.59;57.40
16451;BME280;12243;42.708;23.310;2023-02-01T13:25:41;95096.47;;;6.73;57.54
16451;BME280;12243;42.708;23.310;2023-02-01T13:28:14;95100.00;;;6.72;57.11
16451;BME280;12243;42.708;23.310;2023-02-01T13:31:04;95101.25;;;6.79;57.44